sensor_id;sensor_type;location;lat;lon;timestamp;temperature;humidity
5286;DHT22;2665;53.112;7.358;2022-12-18T00:00:46;-4.30;1.00
5286;DHT22;2665;53.112;7.358;2022-12-18T00:03:16;-4.30;1.00
5286;DHT22;2665;53.112;7.358;2022-12-18T00:05:51;-4.30;1.00
5286;DHT22;2665;53.112;7.358;2022-12-18T00:08:18;-4.40;1.00
5286;DHT22;2665;53.112;7.358;2022-12-18T00:10:45;-4.40;1.00
5286;DHT22;2665;53.112;7.358;2022-12-18T00:13:12;-4.40;1.00
5286;DHT22;2665;53.112;7.358;2022-12-18T00:15:39;-4.50;1.00
5286;DHT22;2665;53.112;7.358;2022-12-18T00:18:05;-4.50;8.90
5286;DHT22;2665;53.112;7.358;2022-12-18T00:20:31;-4.50;29.90
5286;DHT22;2665;53.112;7.358;2022-12-18T00:22:57;-4.50;30.70
5286;DHT22;2665;53.112;7.358;2022-12-18T00:25:22;-4.60;28.60
5286;DHT22;2665;53.112;7.358;2022-12-18T00:27:48;-4.60;33.70
5286;DHT22;2665;53.112;7.358;2022-12-18T00:30:14;-4.60;99.90
5286;DHT22;2665;53.112;7.358;2022-12-18T00:32:39;-4.70;30.30
5286;DHT22;2665;53.112;7.358;2022-12-18T00:35:06;-4.70;1.00
5286;DHT22;2665;53.112;7.358;2022-12-18T00:37:34;-4.70;1.00
5286;DHT22;2665;53.112;7.358;2022-12-18T00:39:59;-4.70;94.40
5286;DHT22;2665;53.112;7.358;2022-12-18T00:42:25;-4.70;99.90
5286;DHT22;2665;53.112;7.358;2022-12-18T00:45:10;-4.70;99.90
5286;DHT22;2665;53.112;7.358;2022-12-18T00:47:35;-4.70;99.90
5286;DHT22;2665;53.112;7.358;2022-12-18T00:50:01;-4.70;1.00
5286;DHT22;2665;53.112;7.358;2022-12-18T00:52:27;-4.70;1.00
5286;DHT22;2665;53.112;7.358;2022-12-18T00:54:52;-4.70;1.00
5286;DHT22;2665;53.112;7.358;2022-12-18T00:57:18;-4.70;1.00
5286;DHT22;2665;53.112;7.358;2022-12-18T00:59:43;-4.70;1.00
5286;DHT22;2665;53.112;7.358;2022-12-18T01:02:09;-4.70;99.90
5286;DHT22;2665;53.112;7.358;2022-12-18T01:04:34;-4.70;99.90
5286;DHT22;2665;53.112;7.358;2022-12-18T01:07:00;-4.80;99.90
5286;DHT22;2665;53.112;7.358;2022-12-18T01:09:26;-4.90;99.90
5286;DHT22;2665;53.112;7.358;2022-12-18T01:11:51;-4.90;99.90
5286;DHT22;2665;53.112;7.358;2022-12-18T01:14:17;-4.90;99.90
5286;DHT22;2665;53.112;7.358;2022-12-18T01:16:43;-5.00;99.90
5286;DHT22;2665;53.112;7.358;2022-12-18T01:19:08;-5.00;99.90
5286;DHT22;2665;53.112;7.358;2022-12-18T01:21:34;-5.00;99.90
5286;DHT22;2665;53.112;7.358;2022-12-18T01:23:59;-5.00;1.00
5286;DHT22;2665;53.112;7.358;2022-12-18T01:26:26;-5.00;1.00
5286;DHT22;2665;53.112;7.358;2022-12-18T01:28:55;-5.00;1.00
5286;DHT22;2665;53.112;7.358;2022-12-18T01:31:26;-5.10;1.00
5286;DHT22;2665;53.112;7.358;2022-12-18T01:33:53;-5.10;1.00
5286;DHT22;2665;53.112;7.358;2022-12-18T01:36:27;-5.10;1.00
5286;DHT22;2665;53.112;7.358;2022-12-18T01:38:53;-5.20;1.00
5286;DHT22;2665;53.112;7.358;2022-12-18T01:41:24;-5.20;1.00
5286;DHT22;2665;53.112;7.358;2022-12-18T01:43:54;-5.30;1.00
5286;DHT22;2665;53.112;7.358;2022-12-18T01:46:21;-5.30;1.00
5286;DHT22;2665;53.112;7.358;2022-12-18T01:48:53;-5.30;1.00
5286;DHT22;2665;53.112;7.358;2022-12-18T01:51:20;-5.30;1.00
5286;DHT22;2665;53.112;7.358;2022-12-18T01:53:47;-5.40;1.00
5286;DHT22;2665;53.112;7.358;2022-12-18T01:56:15;-5.40;1.00
5286;DHT22;2665;53.112;7.358;2022-12-18T01:58:48;-5.40;1.00
5286;DHT22;2665;53.112;7.358;2022-12-18T02:01:15;-5.40;1.00
5286;DHT22;2665;53.112;7.358;2022-12-18T02:03:43;-5.40;1.00
5286;DHT22;2665;53.112;7.358;2022-12-18T02:11:41;-5.50;1.00
5286;DHT22;2665;53.112;7.358;2022-12-18T02:19:32;-5.50;1.00
5286;DHT22;2665;53.112;7.358;2022-12-18T02:22:28;-5.60;1.00
5286;DHT22;2665;53.112;7.358;2022-12-18T02:27:40;-5.50;1.00
5286;DHT22;2665;53.112;7.358;2022-12-18T02:30:08;-5.50;55.70
5286;DHT22;2665;53.112;7.358;2022-12-18T02:32:40;-5.50;1.00
5286;DHT22;2665;53.112;7.358;2022-12-18T02:35:08;-5.50;1.00
5286;DHT22;2665;53.112;7.358;2022-12-18T02:37:35;-5.60;1.00
5286;DHT22;2665;53.112;7.358;2022-12-18T02:40:03;-5.60;1.00
5286;DHT22;2665;53.112;7.358;2022-12-18T02:42:29;-5.60;1.00
5286;DHT22;2665;53.112;7.358;2022-12-18T02:44:55;-5.70;1.00
5286;DHT22;2665;53.112;7.358;2022-12-18T02:47:23;-5.60;1.00
5286;DHT22;2665;53.112;7.358;2022-12-18T02:53:04;-5.70;1.00
5286;DHT22;2665;53.112;7.358;2022-12-18T03:03:47;-5.70;1.00
5286;DHT22;2665;53.112;7.358;2022-12-18T03:06:20;-5.80;1.00
5286;DHT22;2665;53.112;7.358;2022-12-18T03:08:48;-5.80;1.00
5286;DHT22;2665;53.112;7.358;2022-12-18T03:11:15;-5.90;1.00
5286;DHT22;2665;53.112;7.358;2022-12-18T03:14:01;-5.90;1.00
5286;DHT22;2665;53.112;7.358;2022-12-18T03:16:29;-5.90;1.00
5286;DHT22;2665;53.112;7.358;2022-12-18T03:19:31;-6.00;1.00
5286;DHT22;2665;53.112;7.358;2022-12-18T03:21:55;-6.00;1.00
5286;DHT22;2665;53.112;7.358;2022-12-18T03:24:22;-6.00;1.00
5286;DHT22;2665;53.112;7.358;2022-12-18T03:26:53;-6.00;1.00
5286;DHT22;2665;53.112;7.358;2022-12-18T03:29:25;-6.00;1.00
5286;DHT22;2665;53.112;7.358;2022-12-18T03:32:01;-6.10;1.00
5286;DHT22;2665;53.112;7.358;2022-12-18T03:34:33;-6.10;1.00
5286;DHT22;2665;53.112;7.358;2022-12-18T03:37:03;-6.10;1.00
5286;DHT22;2665;53.112;7.358;2022-12-18T03:39:30;-6.20;1.00
5286;DHT22;2665;53.112;7.358;2022-12-18T03:45:11;-6.10;1.00
5286;DHT22;2665;53.112;7.358;2022-12-18T03:55:55;-6.00;24.20
5286;DHT22;2665;53.112;7.358;2022-12-18T03:58:24;-6.00;7.60
5286;DHT22;2665;53.112;7.358;2022-12-18T04:00:52;-6.00;1.00
5286;DHT22;2665;53.112;7.358;2022-12-18T04:03:20;-6.00;1.00
5286;DHT22;2665;53.112;7.358;2022-12-18T04:05:49;-5.90;18.00
5286;DHT22;2665;53.112;7.358;2022-12-18T04:08:16;-5.90;1.00
5286;DHT22;2665;53.112;7.358;2022-12-18T04:10:41;-5.90;1.00
5286;DHT22;2665;53.112;7.358;2022-12-18T04:13:08;-5.90;1.00
5286;DHT22;2665;53.112;7.358;2022-12-18T04:15:35;-5.90;1.00
5286;DHT22;2665;53.112;7.358;2022-12-18T04:18:02;-5.90;1.00
5286;DHT22;2665;53.112;7.358;2022-12-18T04:20:28;-5.90;1.00
5286;DHT22;2665;53.112;7.358;2022-12-18T04:22:53;-5.90;1.00
5286;DHT22;2665;53.112;7.358;2022-12-18T04:25:19;-6.00;99.90
5286;DHT22;2665;53.112;7.358;2022-12-18T04:27:44;-6.00;99.90
5286;DHT22;2665;53.112;7.358;2022-12-18T04:30:10;-6.10;31.00
5286;DHT22;2665;53.112;7.358;2022-12-18T04:32:36;-6.10;29.60
5286;DHT22;2665;53.112;7.358;2022-12-18T04:35:02;-6.10;1.00
5286;DHT22;2665;53.112;7.358;2022-12-18T04:37:29;-6.20;1.00
5286;DHT22;2665;53.112;7.358;2022-12-18T04:39:55;-6.20;1.00
5286;DHT22;2665;53.112;7.358;2022-12-18T04:42:20;-6.20;1.00
5286;DHT22;2665;53.112;7.358;2022-12-18T04:44:46;-6.20;1.00
5286;DHT22;2665;53.112;7.358;2022-12-18T04:47:12;-6.20;1.00
5286;DHT22;2665;53.112;7.358;2022-12-18T04:49:37;-6.30;1.00
5286;DHT22;2665;53.112;7.358;2022-12-18T04:52:03;-6.30;1.00
5286;DHT22;2665;53.112;7.358;2022-12-18T04:54:28;-6.30;99.90
5286;DHT22;2665;53.112;7.358;2022-12-18T04:56:54;-6.40;99.90
5286;DHT22;2665;53.112;7.358;2022-12-18T04:59:20;-6.40;99.90
5286;DHT22;2665;53.112;7.358;2022-12-18T05:01:45;-6.40;99.90
5286;DHT22;2665;53.112;7.358;2022-12-18T05:04:11;-6.40;99.90
5286;DHT22;2665;53.112;7.358;2022-12-18T05:06:36;-6.40;99.90
5286;DHT22;2665;53.112;7.358;2022-12-18T05:09:02;-6.40;99.90
5286;DHT22;2665;53.112;7.358;2022-12-18T05:11:28;-6.40;1.00
5286;DHT22;2665;53.112;7.358;2022-12-18T05:13:56;-6.30;1.00
5286;DHT22;2665;53.112;7.358;2022-12-18T05:16:22;-6.40;99.90
5286;DHT22;2665;53.112;7.358;2022-12-18T05:18:47;-6.40;1.00
5286;DHT22;2665;53.112;7.358;2022-12-18T05:21:13;-6.50;1.00
5286;DHT22;2665;53.112;7.358;2022-12-18T05:23:38;-6.40;1.00
5286;DHT22;2665;53.112;7.358;2022-12-18T05:26:06;-6.40;1.00
5286;DHT22;2665;53.112;7.358;2022-12-18T05:28:34;-6.40;1.00
5286;DHT22;2665;53.112;7.358;2022-12-18T05:31:03;-6.40;1.00
5286;DHT22;2665;53.112;7.358;2022-12-18T05:33:32;-6.40;1.00
5286;DHT22;2665;53.112;7.358;2022-12-18T05:36:04;-6.40;99.90
5286;DHT22;2665;53.112;7.358;2022-12-18T05:38:32;-6.40;1.00
5286;DHT22;2665;53.112;7.358;2022-12-18T05:40:58;-6.50;1.00
5286;DHT22;2665;53.112;7.358;2022-12-18T05:43:24;-6.50;1.00
5286;DHT22;2665;53.112;7.358;2022-12-18T05:45:51;-6.50;99.90
5286;DHT22;2665;53.112;7.358;2022-12-18T05:48:17;-6.50;99.90
5286;DHT22;2665;53.112;7.358;2022-12-18T05:50:44;-6.50;99.90
5286;DHT22;2665;53.112;7.358;2022-12-18T05:53:15;-6.50;95.10
5286;DHT22;2665;53.112;7.358;2022-12-18T05:55:42;-6.60;1.00
5286;DHT22;2665;53.112;7.358;2022-12-18T05:58:09;-6.60;1.00
5286;DHT22;2665;53.112;7.358;2022-12-18T06:00:37;-6.60;1.00
5286;DHT22;2665;53.112;7.358;2022-12-18T06:03:07;-6.60;1.00
5286;DHT22;2665;53.112;7.358;2022-12-18T06:05:38;-6.60;1.00
5286;DHT22;2665;53.112;7.358;2022-12-18T06:08:04;-6.70;99.90
5286;DHT22;2665;53.112;7.358;2022-12-18T06:10:30;-6.70;99.90
5286;DHT22;2665;53.112;7.358;2022-12-18T06:12:56;-6.70;99.90
5286;DHT22;2665;53.112;7.358;2022-12-18T06:15:21;-6.80;30.10
5286;DHT22;2665;53.112;7.358;2022-12-18T06:17:47;-6.90;1.00
5286;DHT22;2665;53.112;7.358;2022-12-18T06:20:12;-6.90;1.00
5286;DHT22;2665;53.112;7.358;2022-12-18T06:22:38;-7.00;1.00
5286;DHT22;2665;53.112;7.358;2022-12-18T06:25:04;-7.10;1.00
5286;DHT22;2665;53.112;7.358;2022-12-18T06:27:31;-7.10;1.00
5286;DHT22;2665;53.112;7.358;2022-12-18T06:29:59;-7.10;1.00
5286;DHT22;2665;53.112;7.358;2022-12-18T06:32:24;-7.20;99.90
5286;DHT22;2665;53.112;7.358;2022-12-18T06:34:50;-7.20;99.90
5286;DHT22;2665;53.112;7.358;2022-12-18T06:37:16;-7.20;99.90
5286;DHT22;2665;53.112;7.358;2022-12-18T06:39:41;-7.30;1.00
5286;DHT22;2665;53.112;7.358;2022-12-18T06:42:07;-7.30;1.00
5286;DHT22;2665;53.112;7.358;2022-12-18T06:44:33;-7.40;1.80
5286;DHT22;2665;53.112;7.358;2022-12-18T06:46:58;-7.40;1.00
5286;DHT22;2665;53.112;7.358;2022-12-18T06:49:24;-7.40;18.20
5286;DHT22;2665;53.112;7.358;2022-12-18T06:51:49;-7.50;99.90
5286;DHT22;2665;53.112;7.358;2022-12-18T06:54:15;-7.40;99.90
5286;DHT22;2665;53.112;7.358;2022-12-18T06:56:41;-7.40;99.90
5286;DHT22;2665;53.112;7.358;2022-12-18T06:59:06;-7.40;99.90
5286;DHT22;2665;53.112;7.358;2022-12-18T07:01:32;-7.50;99.90
5286;DHT22;2665;53.112;7.358;2022-12-18T07:03:57;-7.60;99.90
5286;DHT22;2665;53.112;7.358;2022-12-18T07:06:24;-7.60;14.20
5286;DHT22;2665;53.112;7.358;2022-12-18T07:08:51;-7.70;1.00
5286;DHT22;2665;53.112;7.358;2022-12-18T07:11:18;-7.70;98.40
5286;DHT22;2665;53.112;7.358;2022-12-18T07:13:45;-7.70;90.20
5286;DHT22;2665;53.112;7.358;2022-12-18T07:16:16;-7.80;99.90
5286;DHT22;2665;53.112;7.358;2022-12-18T07:18:41;-7.80;99.90
5286;DHT22;2665;53.112;7.358;2022-12-18T07:21:09;-7.80;99.90
5286;DHT22;2665;53.112;7.358;2022-12-18T07:23:35;-7.80;99.90
5286;DHT22;2665;53.112;7.358;2022-12-18T07:26:03;-7.80;99.90
5286;DHT22;2665;53.112;7.358;2022-12-18T07:28:29;-7.80;1.00
5286;DHT22;2665;53.112;7.358;2022-12-18T07:30:55;-7.80;1.00
5286;DHT22;2665;53.112;7.358;2022-12-18T07:33:20;-7.80;1.00
5286;DHT22;2665;53.112;7.358;2022-12-18T07:35:49;-7.80;99.90
5286;DHT22;2665;53.112;7.358;2022-12-18T07:38:14;-7.70;1.00
5286;DHT22;2665;53.112;7.358;2022-12-18T07:40:40;-7.70;1.00
5286;DHT22;2665;53.112;7.358;2022-12-18T07:43:06;-7.70;1.00
5286;DHT22;2665;53.112;7.358;2022-12-18T07:45:31;-7.60;71.60
5286;DHT22;2665;53.112;7.358;2022-12-18T07:47:57;-7.60;99.90
5286;DHT22;2665;53.112;7.358;2022-12-18T07:50:22;-7.50;99.90
5286;DHT22;2665;53.112;7.358;2022-12-18T07:52:49;-7.50;99.90
5286;DHT22;2665;53.112;7.358;2022-12-18T07:55:14;-7.50;99.90
5286;DHT22;2665;53.112;7.358;2022-12-18T07:57:40;-7.50;99.90
5286;DHT22;2665;53.112;7.358;2022-12-18T08:00:06;-7.40;99.90
5286;DHT22;2665;53.112;7.358;2022-12-18T08:02:32;-7.40;99.90
5286;DHT22;2665;53.112;7.358;2022-12-18T08:04:57;-7.30;1.00
5286;DHT22;2665;53.112;7.358;2022-12-18T08:07:23;-7.30;1.00
5286;DHT22;2665;53.112;7.358;2022-12-18T08:09:49;-7.20;1.00
5286;DHT22;2665;53.112;7.358;2022-12-18T08:12:14;-7.10;99.90
5286;DHT22;2665;53.112;7.358;2022-12-18T08:14:41;-7.00;99.90
5286;DHT22;2665;53.112;7.358;2022-12-18T08:17:07;-7.00;99.90
5286;DHT22;2665;53.112;7.358;2022-12-18T08:19:32;-6.90;99.90
5286;DHT22;2665;53.112;7.358;2022-12-18T08:21:58;-6.90;99.90
5286;DHT22;2665;53.112;7.358;2022-12-18T08:24:23;-6.80;99.90
5286;DHT22;2665;53.112;7.358;2022-12-18T08:26:49;-6.70;99.90
5286;DHT22;2665;53.112;7.358;2022-12-18T08:29:15;-6.60;99.90
5286;DHT22;2665;53.112;7.358;2022-12-18T08:51:31;-5.80;1.00
5286;DHT22;2665;53.112;7.358;2022-12-18T08:53:57;-5.80;99.90
5286;DHT22;2665;53.112;7.358;2022-12-18T08:56:23;-5.70;57.10
5286;DHT22;2665;53.112;7.358;2022-12-18T08:58:52;-5.60;1.00
5286;DHT22;2665;53.112;7.358;2022-12-18T09:01:17;-5.60;1.00
5286;DHT22;2665;53.112;7.358;2022-12-18T09:03:46;-5.50;1.00
5286;DHT22;2665;53.112;7.358;2022-12-18T09:06:14;-5.40;1.00
5286;DHT22;2665;53.112;7.358;2022-12-18T09:08:41;-5.30;1.00
5286;DHT22;2665;53.112;7.358;2022-12-18T09:11:22;-5.20;1.00
5286;DHT22;2665;53.112;7.358;2022-12-18T09:13:48;-5.10;1.00
5286;DHT22;2665;53.112;7.358;2022-12-18T09:16:14;-5.00;99.90
5286;DHT22;2665;53.112;7.358;2022-12-18T09:18:40;-4.80;1.00
5286;DHT22;2665;53.112;7.358;2022-12-18T09:21:17;-4.60;1.00
5286;DHT22;2665;53.112;7.358;2022-12-18T09:23:43;-4.40;1.00
5286;DHT22;2665;53.112;7.358;2022-12-18T09:26:09;-4.20;1.00
5286;DHT22;2665;53.112;7.358;2022-12-18T09:28:35;-4.10;1.00
5286;DHT22;2665;53.112;7.358;2022-12-18T09:31:06;-4.00;99.90
5286;DHT22;2665;53.112;7.358;2022-12-18T09:33:34;-3.90;1.00
5286;DHT22;2665;53.112;7.358;2022-12-18T09:36:02;-3.70;1.00
5286;DHT22;2665;53.112;7.358;2022-12-18T09:38:28;-3.60;99.90
5286;DHT22;2665;53.112;7.358;2022-12-18T09:41:02;-3.60;1.00
5286;DHT22;2665;53.112;7.358;2022-12-18T09:43:37;-3.50;99.90
5286;DHT22;2665;53.112;7.358;2022-12-18T09:46:09;-3.40;99.90
5286;DHT22;2665;53.112;7.358;2022-12-18T09:48:40;-3.30;1.00
5286;DHT22;2665;53.112;7.358;2022-12-18T09:51:24;-3.20;1.00
5286;DHT22;2665;53.112;7.358;2022-12-18T09:54:02;-3.10;99.90
5286;DHT22;2665;53.112;7.358;2022-12-18T09:56:29;-3.00;1.00
5286;DHT22;2665;53.112;7.358;2022-12-18T09:59:01;-3.00;99.90
5286;DHT22;2665;53.112;7.358;2022-12-18T10:01:28;-2.90;1.00
5286;DHT22;2665;53.112;7.358;2022-12-18T10:03:55;-2.90;99.90
5286;DHT22;2665;53.112;7.358;2022-12-18T10:06:54;-2.90;99.90
5286;DHT22;2665;53.112;7.358;2022-12-18T10:09:58;-2.90;1.00
5286;DHT22;2665;53.112;7.358;2022-12-18T10:18:18;-2.90;1.00
5286;DHT22;2665;53.112;7.358;2022-12-18T10:20:51;-3.00;1.00
5286;DHT22;2665;53.112;7.358;2022-12-18T10:23:33;-3.00;1.00
5286;DHT22;2665;53.112;7.358;2022-12-18T10:26:07;-3.00;1.00
5286;DHT22;2665;53.112;7.358;2022-12-18T10:28:36;-3.00;1.00
5286;DHT22;2665;53.112;7.358;2022-12-18T10:31:18;-2.90;1.00
5286;DHT22;2665;53.112;7.358;2022-12-18T10:33:44;-2.80;1.00
5286;DHT22;2665;53.112;7.358;2022-12-18T10:36:11;-2.40;93.80
5286;DHT22;2665;53.112;7.358;2022-12-18T10:38:36;-2.10;1.00
5286;DHT22;2665;53.112;7.358;2022-12-18T10:41:23;-1.80;1.00
5286;DHT22;2665;53.112;7.358;2022-12-18T10:44:12;-1.60;99.90
5286;DHT22;2665;53.112;7.358;2022-12-18T10:46:40;-1.30;1.00
5286;DHT22;2665;53.112;7.358;2022-12-18T10:49:19;-1.20;99.90
5286;DHT22;2665;53.112;7.358;2022-12-18T10:51:46;-1.00;99.90
5286;DHT22;2665;53.112;7.358;2022-12-18T10:54:21;-0.90;99.90
5286;DHT22;2665;53.112;7.358;2022-12-18T10:56:47;-0.80;13.10
5286;DHT22;2665;53.112;7.358;2022-12-18T10:59:15;-0.50;99.90
5286;DHT22;2665;53.112;7.358;2022-12-18T11:01:50;-0.30;99.90
